createdAt,value
2018-07-02T00:01:24.990Z,17.00
2018-07-02T00:03:29.433Z,16.90
2018-07-02T00:05:45.486Z,16.80
2018-07-02T00:07:49.990Z,16.70
2018-07-02T00:09:54.761Z,16.70
2018-07-02T00:11:58.958Z,16.70
2018-07-02T00:14:03.753Z,16.80
2018-07-02T00:16:08.286Z,16.60
2018-07-02T00:18:12.730Z,16.60
2018-07-02T00:20:17.227Z,16.70
2018-07-02T00:22:21.654Z,16.70
2018-07-02T00:24:26.154Z,16.70
2018-07-02T00:26:30.597Z,16.70
2018-07-02T00:28:35.092Z,16.50
2018-07-02T00:30:39.493Z,16.40
2018-07-02T00:32:43.652Z,16.40
2018-07-02T00:34:48.501Z,16.40
2018-07-02T00:36:52.665Z,16.30
2018-07-02T00:38:57.494Z,16.30
2018-07-02T00:41:01.921Z,16.30
2018-07-02T00:43:06.882Z,16.20
2018-07-02T00:45:11.573Z,16.10
2018-07-02T00:47:16.898Z,16.00
2018-07-02T00:49:21.492Z,16.10
2018-07-02T00:51:26.365Z,16.10
2018-07-02T00:53:30.527Z,16.10
2018-07-02T00:55:34.714Z,16.10
2018-07-02T00:57:39.300Z,16.00
2018-07-02T00:59:43.737Z,15.60
2018-07-02T01:01:48.514Z,15.50
2018-07-02T01:03:52.829Z,15.30
2018-07-02T01:05:57.013Z,15.20
2018-07-02T01:08:01.959Z,15.30
2018-07-02T01:10:06.118Z,15.30
2018-07-02T01:12:10.889Z,15.40
2018-07-02T01:14:15.349Z,15.60
2018-07-02T01:16:19.637Z,15.70
2018-07-02T01:18:24.064Z,15.50
2018-07-02T01:20:28.861Z,15.50
2018-07-02T01:22:33.636Z,15.40
2018-07-02T01:24:38.103Z,15.20
2018-07-02T01:26:42.521Z,14.80
2018-07-02T01:28:47.598Z,15.00
2018-07-02T01:30:52.065Z,15.10
2018-07-02T01:32:56.609Z,15.10
2018-07-02T01:35:01.102Z,15.10
2018-07-02T01:37:05.331Z,14.90
2018-07-02T01:39:11.018Z,14.70
2018-07-02T01:41:15.810Z,14.70
2018-07-02T01:43:20.201Z,14.90
2018-07-02T01:45:24.756Z,15.00
2018-07-02T01:47:28.929Z,15.00
2018-07-02T01:49:33.498Z,15.00
2018-07-02T01:51:37.941Z,15.10
2018-07-02T01:53:42.842Z,15.10
2018-07-02T01:55:47.411Z,15.00
2018-07-02T01:57:52.264Z,14.80
2018-07-02T01:59:56.992Z,14.70
2018-07-02T02:02:01.514Z,14.60
2018-07-02T02:04:06.230Z,14.70
2018-07-02T02:06:11.305Z,14.70
2018-07-02T02:08:15.801Z,14.80
2018-07-02T02:10:20.573Z,14.60
2018-07-02T02:12:25.137Z,14.80
2018-07-02T02:14:29.612Z,14.70
2018-07-02T02:16:34.114Z,14.70
2018-07-02T02:18:38.616Z,14.80
2018-07-02T02:20:43.746Z,14.80
2018-07-02T02:22:48.546Z,14.80
2018-07-02T02:24:53.313Z,14.90
2018-07-02T02:26:57.743Z,14.90
2018-07-02T02:29:02.517Z,14.80
2018-07-02T02:31:07.005Z,14.60
2018-07-02T02:33:11.445Z,14.70
2018-07-02T02:35:16.240Z,14.60
2018-07-02T02:37:21.171Z,14.70
2018-07-02T02:39:25.949Z,14.70
2018-07-02T02:41:30.557Z,14.70
2018-07-02T02:43:34.859Z,14.80
2018-07-02T02:45:39.347Z,14.80
2018-07-02T02:47:43.809Z,14.80
2018-07-02T02:49:48.010Z,14.70
2018-07-02T02:51:52.450Z,14.60
2018-07-02T02:53:56.895Z,14.60
2018-07-02T02:56:01.682Z,14.60
2018-07-02T02:58:06.078Z,14.60
2018-07-02T03:00:10.333Z,14.60
2018-07-02T03:02:14.746Z,14.60
2018-07-02T03:04:19.281Z,14.70
2018-07-02T03:06:24.067Z,14.80
2018-07-02T03:08:28.521Z,14.80
2018-07-02T03:10:33.310Z,14.50
2018-07-02T03:12:37.782Z,14.40
2018-07-02T03:14:42.281Z,14.50
2018-07-02T03:18:50.618Z,14.20
2018-07-02T03:20:54.790Z,14.20
2018-07-02T03:22:59.593Z,14.30
2018-07-02T03:25:04.085Z,14.40
2018-07-02T03:27:08.518Z,14.40
2018-07-02T03:29:14.377Z,14.50
2018-07-02T03:31:18.863Z,14.20
2018-07-02T03:33:23.699Z,14.30
2018-07-02T03:35:28.131Z,14.30
2018-07-02T03:37:32.985Z,14.40
2018-07-02T03:39:37.416Z,14.40
2018-07-02T03:41:42.177Z,14.50
2018-07-02T03:43:46.680Z,14.40
2018-07-02T03:45:51.138Z,14.40
2018-07-02T03:47:55.301Z,14.50
2018-07-02T03:50:00.621Z,14.50
2018-07-02T03:52:05.542Z,14.50
2018-07-02T03:54:09.905Z,14.00
2018-07-02T03:56:14.361Z,14.20
2018-07-02T03:58:19.243Z,14.30
2018-07-02T04:00:23.761Z,14.40
2018-07-02T04:02:28.225Z,14.50
2018-07-02T04:04:32.981Z,14.50
2018-07-02T04:06:37.453Z,14.60
2018-07-02T04:08:41.881Z,14.70
2018-07-02T04:10:46.325Z,14.80
2018-07-02T04:12:50.946Z,14.80
2018-07-02T04:14:55.405Z,14.80
2018-07-02T04:16:59.910Z,14.80
2018-07-02T04:19:11.477Z,14.80
2018-07-02T04:21:15.950Z,14.80
2018-07-02T04:23:20.434Z,14.70
2018-07-02T04:25:24.931Z,14.80
2018-07-02T04:27:29.375Z,14.80
2018-07-02T04:29:34.220Z,14.90
2018-07-02T04:31:38.739Z,14.90
2018-07-02T04:33:43.257Z,14.90
2018-07-02T04:35:47.660Z,14.90
2018-07-02T04:37:52.187Z,15.00
2018-07-02T04:39:57.158Z,14.90
2018-07-02T04:42:02.141Z,15.10
2018-07-02T04:44:07.052Z,15.20
2018-07-02T04:46:11.517Z,15.20
2018-07-02T04:48:15.957Z,15.30
2018-07-02T04:50:20.738Z,15.40
2018-07-02T04:52:25.533Z,15.50
2018-07-02T04:54:30.034Z,15.50
2018-07-02T04:56:34.805Z,15.50
2018-07-02T04:58:39.494Z,15.50
2018-07-02T05:00:44.049Z,15.50
2018-07-02T05:04:52.525Z,15.50
2018-07-02T05:06:56.766Z,15.60
2018-07-02T05:09:01.350Z,15.70
2018-07-02T05:11:05.949Z,15.80
2018-07-02T05:13:10.189Z,15.80
2018-07-02T05:15:14.453Z,15.90
2018-07-02T05:17:18.702Z,16.00
2018-07-02T05:19:23.048Z,16.00
2018-07-02T05:23:32.225Z,16.10
2018-07-02T05:25:36.542Z,16.20
2018-07-02T05:27:40.836Z,16.20
2018-07-02T05:29:45.401Z,16.30
2018-07-02T05:31:49.711Z,16.40
2018-07-02T05:33:54.154Z,16.40
2018-07-02T05:35:58.389Z,16.40
2018-07-02T05:38:03.314Z,16.40
2018-07-02T05:40:07.733Z,16.40
2018-07-02T05:42:12.007Z,16.50
2018-07-02T05:44:16.221Z,16.60
2018-07-02T05:46:20.772Z,16.60
2018-07-02T05:48:25.011Z,16.70
2018-07-02T05:50:29.849Z,16.80
2018-07-02T05:52:34.157Z,16.80
2018-07-02T05:54:38.441Z,16.90
2018-07-02T05:56:42.680Z,16.90
2018-07-02T05:58:46.809Z,17.00
2018-07-02T06:00:51.406Z,17.10
2018-07-02T06:02:55.516Z,17.10
2018-07-02T06:04:59.660Z,17.10
2018-07-02T06:07:03.962Z,17.20
2018-07-02T06:09:10.792Z,17.30
2018-07-02T06:11:15.278Z,17.30
2018-07-02T06:13:19.887Z,17.40
2018-07-02T06:15:24.129Z,17.40
2018-07-02T06:17:28.490Z,17.50
2018-07-02T06:19:32.729Z,17.50
2018-07-02T06:21:36.958Z,17.60
2018-07-02T06:23:41.503Z,17.60
2018-07-02T06:25:46.126Z,17.70
2018-07-02T06:27:50.386Z,17.70
2018-07-02T06:29:54.965Z,17.70
2018-07-02T06:31:58.994Z,17.80
2018-07-02T06:34:03.754Z,17.80
2018-07-02T06:38:12.557Z,17.90
2018-07-02T06:40:17.247Z,17.90
2018-07-02T06:42:21.495Z,17.90
2018-07-02T06:44:25.933Z,18.00
2018-07-02T06:48:34.103Z,18.00
2018-07-02T06:50:38.573Z,18.10
2018-07-02T06:54:47.099Z,18.20
2018-07-02T06:56:52.390Z,18.20
2018-07-02T06:58:56.652Z,18.20
2018-07-02T07:01:00.854Z,18.30
2018-07-02T07:03:04.846Z,18.40
2018-07-02T07:05:08.813Z,18.40
2018-07-02T07:07:13.173Z,18.50
2018-07-02T07:09:17.427Z,18.50
2018-07-02T07:11:21.746Z,18.60
2018-07-02T07:13:26.342Z,18.60
2018-07-02T07:15:30.732Z,18.60
2018-07-02T07:17:34.830Z,18.70
2018-07-02T07:19:39.536Z,18.70
2018-07-02T07:21:44.026Z,18.70
2018-07-02T07:23:48.603Z,18.80
2018-07-02T07:27:56.437Z,18.80
2018-07-02T07:32:04.620Z,18.90
2018-07-02T07:34:08.873Z,18.90
2018-07-02T07:36:13.485Z,19.00
2018-07-02T07:38:17.751Z,19.00
2018-07-02T07:40:21.986Z,19.00
2018-07-02T07:42:25.993Z,19.10
2018-07-02T07:44:30.663Z,19.10
2018-07-02T07:46:35.277Z,19.10
2018-07-02T07:48:39.230Z,19.10
2018-07-02T07:50:44.151Z,19.20
2018-07-02T07:52:48.374Z,19.20
2018-07-02T07:54:52.624Z,19.20
2018-07-02T07:56:57.273Z,19.10
2018-07-02T07:59:01.530Z,19.10
2018-07-02T08:01:06.457Z,19.20
2018-07-02T08:03:11.370Z,19.20
2018-07-02T08:05:15.610Z,19.20
2018-07-02T08:07:20.754Z,19.20
2018-07-02T08:09:24.746Z,19.30
2018-07-02T08:11:29.086Z,19.40
2018-07-02T08:13:33.402Z,19.40
2018-07-02T08:15:37.753Z,19.50
2018-07-02T08:17:41.694Z,19.60
2018-07-02T08:19:45.946Z,19.60
2018-07-02T08:21:50.465Z,19.60
2018-07-02T08:23:54.713Z,19.60
2018-07-02T08:25:59.939Z,19.60
2018-07-02T08:28:04.234Z,19.60
2018-07-02T08:30:08.941Z,19.50
2018-07-02T08:32:13.212Z,19.50
2018-07-02T08:34:17.437Z,19.50
2018-07-02T08:36:22.034Z,19.40
2018-07-02T08:38:26.297Z,19.50
2018-07-02T08:40:31.190Z,19.50
2018-07-02T08:42:35.775Z,19.50
2018-07-02T08:44:39.753Z,19.50
2018-07-02T08:46:44.370Z,19.60
2018-07-02T08:48:48.763Z,19.60
2018-07-02T08:50:53.276Z,19.70
2018-07-02T08:52:57.622Z,19.80
2018-07-02T08:55:02.062Z,19.90
2018-07-02T08:57:06.638Z,19.90
2018-07-02T09:01:14.858Z,20.00
2018-07-02T09:03:19.130Z,20.00
2018-07-02T09:05:23.384Z,20.00
2018-07-02T09:07:27.822Z,20.00
2018-07-02T09:09:32.081Z,20.00
2018-07-02T09:11:36.369Z,20.00
2018-07-02T09:13:40.799Z,20.00
2018-07-02T09:15:45.166Z,20.00
2018-07-02T09:17:49.801Z,20.20
2018-07-02T09:19:54.252Z,20.30
2018-07-02T09:21:58.481Z,20.40
2018-07-02T09:24:02.724Z,20.40
2018-07-02T09:26:06.973Z,20.40
2018-07-02T09:28:11.282Z,20.40
2018-07-02T09:30:15.672Z,20.60
2018-07-02T09:32:20.166Z,20.80
2018-07-02T09:34:24.828Z,20.80
2018-07-02T09:36:29.068Z,20.90
2018-07-02T09:38:33.654Z,20.90
2018-07-02T09:40:37.853Z,20.60
2018-07-02T09:42:41.826Z,20.50
2018-07-02T09:44:46.451Z,20.60
2018-07-02T09:46:51.031Z,20.70
2018-07-02T09:48:55.602Z,20.70
2018-07-02T09:50:59.880Z,20.60
2018-07-02T09:53:04.173Z,20.50
2018-07-02T09:55:08.149Z,20.60
2018-07-02T09:57:13.039Z,20.60
2018-07-02T09:59:17.739Z,20.70
2018-07-02T10:01:21.990Z,20.70
2018-07-02T10:03:26.225Z,20.80
2018-07-02T10:05:30.470Z,21.10
2018-07-02T10:07:34.766Z,21.10
2018-07-02T10:09:39.039Z,21.20
2018-07-02T10:11:43.534Z,21.40
2018-07-02T10:13:48.027Z,21.40
2018-07-02T10:15:52.346Z,21.50
2018-07-02T10:17:56.744Z,21.50
2018-07-02T10:20:01.462Z,21.60
2018-07-02T10:22:05.439Z,21.90
2018-07-02T10:24:09.737Z,21.90
2018-07-02T10:26:13.953Z,21.70
2018-07-02T10:28:18.234Z,21.70
2018-07-02T10:30:22.502Z,21.70
2018-07-02T10:32:26.792Z,21.60
2018-07-02T10:34:31.378Z,21.50
2018-07-02T10:36:35.610Z,21.30
2018-07-02T10:38:40.257Z,21.30
2018-07-02T10:40:44.499Z,21.30
2018-07-02T10:42:49.082Z,21.50
2018-07-02T10:44:53.421Z,21.80
2018-07-02T10:46:57.723Z,22.10
2018-07-02T10:49:02.499Z,22.10
2018-07-02T10:51:06.750Z,22.10
2018-07-02T10:53:11.405Z,22.00
2018-07-02T10:55:16.010Z,22.00
2018-07-02T10:57:20.589Z,22.00
2018-07-02T10:59:24.851Z,22.10
2018-07-02T11:01:29.201Z,22.00
2018-07-02T11:03:33.578Z,21.90
2018-07-02T11:05:37.851Z,22.10
2018-07-02T11:07:42.109Z,22.20
2018-07-02T11:09:46.681Z,22.20
2018-07-02T11:11:51.510Z,22.20
2018-07-02T11:13:55.989Z,22.40
2018-07-02T11:15:59.977Z,22.40
2018-07-02T11:18:04.849Z,22.50
2018-07-02T11:20:09.412Z,22.80
2018-07-02T11:22:13.649Z,22.90
2018-07-02T11:24:17.918Z,23.00
2018-07-02T11:26:22.506Z,22.90
2018-07-02T11:28:26.766Z,22.80
2018-07-02T11:30:32.976Z,22.90
2018-07-02T11:32:37.234Z,22.90
2018-07-02T11:34:41.831Z,22.60
2018-07-02T11:36:46.551Z,22.40
2018-07-02T11:40:54.734Z,23.00
2018-07-02T11:45:02.941Z,25.30
2018-07-02T11:49:11.161Z,26.70
2018-07-02T11:51:15.726Z,27.30
2018-07-02T11:53:19.985Z,27.50
2018-07-02T11:55:24.810Z,27.90
2018-07-02T11:57:29.827Z,27.80
2018-07-02T11:59:34.810Z,28.30
2018-07-02T12:01:39.976Z,28.00
2018-07-02T12:03:45.145Z,26.80
2018-07-02T12:05:49.426Z,24.60
2018-07-02T12:07:53.863Z,23.70
2018-07-02T12:09:58.045Z,23.60
2018-07-02T12:12:02.641Z,24.30
2018-07-02T12:14:06.922Z,25.40
2018-07-02T12:16:11.302Z,26.30
2018-07-02T12:18:16.432Z,27.10
2018-07-02T12:20:21.197Z,26.90
2018-07-02T12:22:26.457Z,27.10
2018-07-02T12:24:31.233Z,27.60
2018-07-02T12:26:35.553Z,28.40
2018-07-02T12:28:40.217Z,28.60
2018-07-02T12:30:45.439Z,27.40
2018-07-02T12:32:50.286Z,26.10
2018-07-02T12:34:54.801Z,25.20
2018-07-02T12:36:59.029Z,24.40
2018-07-02T12:39:05.736Z,25.00
2018-07-02T12:41:10.002Z,26.30
2018-07-02T12:43:15.075Z,26.80
2018-07-02T12:45:22.188Z,27.20
2018-07-02T12:47:27.001Z,26.50
2018-07-02T12:49:32.269Z,26.70
2018-07-02T12:51:37.081Z,27.00
2018-07-02T12:53:42.282Z,26.90
2018-07-02T12:55:47.436Z,26.80
2018-07-02T12:57:52.561Z,27.10
2018-07-02T12:59:57.401Z,27.80
2018-07-02T13:02:01.922Z,27.50
2018-07-02T13:04:06.689Z,27.40
2018-07-02T13:06:13.686Z,27.30
2018-07-02T13:08:19.012Z,27.60
2018-07-02T13:10:23.517Z,27.20
2018-07-02T13:12:28.317Z,27.50
2018-07-02T13:14:33.325Z,28.00
2018-07-02T13:16:38.562Z,27.50
2018-07-02T13:18:43.377Z,27.60
2018-07-02T13:20:48.314Z,27.40
2018-07-02T13:22:53.326Z,27.10
2018-07-02T13:24:58.163Z,27.00
2018-07-02T13:27:02.594Z,26.20
2018-07-02T13:29:07.405Z,25.70
2018-07-02T13:31:11.404Z,26.70
2018-07-02T13:33:16.382Z,27.90
2018-07-02T13:35:21.226Z,27.40
2018-07-02T13:37:26.743Z,27.20
2018-07-02T13:39:31.577Z,27.20
2018-07-02T13:41:36.562Z,28.00
2018-07-02T13:43:41.807Z,28.90
2018-07-02T13:45:47.063Z,29.00
2018-07-02T13:47:52.437Z,28.80
2018-07-02T13:49:57.434Z,28.80
2018-07-02T13:52:02.596Z,29.00
2018-07-02T13:54:07.417Z,27.70
2018-07-02T13:56:12.527Z,27.10
2018-07-02T13:58:17.105Z,26.10
2018-07-02T14:00:21.682Z,25.90
2018-07-02T14:02:26.785Z,26.70
2018-07-02T14:04:31.786Z,27.60
2018-07-02T14:06:35.766Z,27.60
2018-07-02T14:08:40.062Z,27.60
2018-07-02T14:10:44.062Z,27.90
2018-07-02T14:12:48.341Z,28.80
2018-07-02T14:14:53.121Z,29.50
2018-07-02T14:16:58.074Z,29.40
2018-07-02T14:19:03.115Z,30.00
2018-07-02T14:21:07.911Z,30.60
2018-07-02T14:23:12.900Z,31.00
2018-07-02T14:25:18.025Z,31.10
2018-07-02T14:27:22.725Z,31.20
2018-07-02T14:29:27.061Z,30.50
2018-07-02T14:31:31.667Z,30.10
2018-07-02T14:33:35.962Z,30.10
2018-07-02T14:35:40.838Z,29.50
2018-07-02T14:37:45.644Z,27.80
2018-07-02T14:39:50.745Z,26.80
2018-07-02T14:41:54.990Z,26.30
2018-07-02T14:43:59.220Z,25.90
2018-07-02T14:46:03.667Z,25.40
2018-07-02T14:48:07.973Z,25.90
2018-07-02T14:50:12.743Z,26.50
2018-07-02T14:52:17.079Z,26.90
2018-07-02T14:54:22.038Z,27.50
2018-07-02T14:56:26.464Z,27.80
2018-07-02T14:58:30.814Z,28.40
2018-07-02T15:00:35.146Z,29.40
2018-07-02T15:02:39.450Z,29.20
2018-07-02T15:04:44.219Z,28.90
2018-07-02T15:06:48.993Z,28.80
2018-07-02T15:08:53.262Z,28.60
2018-07-02T15:10:58.035Z,28.60
2018-07-02T15:13:02.850Z,29.10
2018-07-02T15:15:07.710Z,29.30
2018-07-02T15:17:12.365Z,29.70
2018-07-02T15:19:17.194Z,30.00
2018-07-02T15:21:21.989Z,31.40
2018-07-02T15:23:26.506Z,30.70
2018-07-02T15:25:31.618Z,29.70
2018-07-02T15:27:35.849Z,29.20
2018-07-02T15:29:40.733Z,28.90
2018-07-02T15:31:44.758Z,29.20
2018-07-02T15:33:49.563Z,29.60
2018-07-02T15:35:53.715Z,30.10
2018-07-02T15:37:59.058Z,30.40
2018-07-02T15:40:03.314Z,30.50
2018-07-02T15:42:08.425Z,31.30
2018-07-02T15:44:13.597Z,31.50
2018-07-02T15:46:18.396Z,31.80
2018-07-02T15:48:23.558Z,31.80
2018-07-02T15:50:28.845Z,31.30
2018-07-02T15:52:33.998Z,31.90
2018-07-02T15:54:38.806Z,31.50
2018-07-02T15:56:53.985Z,31.40
2018-07-02T15:58:59.125Z,31.70
2018-07-02T16:01:04.258Z,32.60
2018-07-02T16:03:09.666Z,33.10
2018-07-02T16:05:14.349Z,32.60
2018-07-02T16:07:19.733Z,31.10
2018-07-02T16:09:24.539Z,30.50
2018-07-02T16:11:29.692Z,30.70
2018-07-02T16:13:34.482Z,29.90
2018-07-02T16:15:39.279Z,29.90
2018-07-02T16:19:48.920Z,29.70
2018-07-02T16:21:53.310Z,30.30
2018-07-02T16:23:58.477Z,30.70
2018-07-02T16:26:03.793Z,30.50
2018-07-02T16:28:08.998Z,30.90
2018-07-02T16:30:13.253Z,30.20
2018-07-02T16:32:17.497Z,30.20
2018-07-02T16:34:21.804Z,30.10
2018-07-02T16:36:26.833Z,30.10
2018-07-02T16:38:31.390Z,29.80
2018-07-02T16:40:35.957Z,30.20
2018-07-02T16:42:40.267Z,31.40
2018-07-02T16:44:44.493Z,30.70
2018-07-02T16:46:48.738Z,30.60
2018-07-02T16:48:53.169Z,30.50
2018-07-02T16:50:57.524Z,31.00
2018-07-02T16:53:02.035Z,30.70
2018-07-02T16:55:06.281Z,30.50
2018-07-02T16:57:10.546Z,31.10
2018-07-02T16:59:15.241Z,30.10
2018-07-02T17:01:19.462Z,29.60
2018-07-02T17:03:24.446Z,30.10
2018-07-02T17:05:28.754Z,30.90
2018-07-02T17:07:33.542Z,30.90
2018-07-02T17:09:38.102Z,30.60
2018-07-02T17:11:42.862Z,30.80
2018-07-02T17:13:47.598Z,30.60
2018-07-02T17:15:51.856Z,30.20
2018-07-02T17:17:56.493Z,30.60
2018-07-02T17:20:00.814Z,30.50
2018-07-02T17:22:05.102Z,30.50
2018-07-02T17:24:10.007Z,30.50
2018-07-02T17:26:14.921Z,30.10
2018-07-02T17:28:19.171Z,30.50
2018-07-02T17:30:23.451Z,30.60
2018-07-02T17:32:27.798Z,30.10
2018-07-02T17:34:32.202Z,29.50
2018-07-02T17:36:36.522Z,29.50
2018-07-02T17:38:40.709Z,29.00
2018-07-02T17:40:44.951Z,29.20
2018-07-02T17:42:49.559Z,28.80
2018-07-02T17:44:54.477Z,28.60
2018-07-02T17:46:58.802Z,28.90
2018-07-02T17:49:03.312Z,29.50
2018-07-02T17:51:07.610Z,30.10
2018-07-02T17:53:11.778Z,30.60
2018-07-02T17:55:16.033Z,30.70
2018-07-02T17:57:20.271Z,30.90
2018-07-02T17:59:24.538Z,31.30
2018-07-02T18:01:29.379Z,31.70
2018-07-02T18:03:34.262Z,31.70
2018-07-02T18:05:38.554Z,30.80
2018-07-02T18:07:43.142Z,29.80
2018-07-02T18:09:47.127Z,29.60
2018-07-02T18:11:51.441Z,29.90
2018-07-02T18:15:59.761Z,29.70
2018-07-02T18:18:04.062Z,28.90
2018-07-02T18:20:08.394Z,29.00
2018-07-02T18:22:12.389Z,29.60
2018-07-02T18:24:16.622Z,29.60
2018-07-02T18:26:20.873Z,28.70
2018-07-02T18:28:25.210Z,28.10
2018-07-02T18:30:29.897Z,27.40
2018-07-02T18:32:34.785Z,27.00
2018-07-02T18:34:39.566Z,27.50
2018-07-02T18:36:44.858Z,27.10
2018-07-02T18:38:49.162Z,27.10
2018-07-02T18:40:53.399Z,26.70
2018-07-02T18:42:57.554Z,26.40
2018-07-02T18:47:05.622Z,26.20
2018-07-02T18:49:09.650Z,25.90
2018-07-02T18:51:13.861Z,25.60
2018-07-02T18:53:18.495Z,25.20
2018-07-02T18:55:22.741Z,25.00
2018-07-02T18:57:27.566Z,25.20
2018-07-02T18:59:32.051Z,25.00
2018-07-02T19:01:36.613Z,25.00
2018-07-02T19:03:41.674Z,24.60
2018-07-02T19:05:46.349Z,24.50
2018-07-02T19:07:50.433Z,24.40
2018-07-02T19:09:55.093Z,24.30
2018-07-02T19:11:59.332Z,24.20
2018-07-02T19:16:07.522Z,24.20
2018-07-02T19:18:12.442Z,24.00
2018-07-02T19:20:17.146Z,23.90
2018-07-02T19:22:21.189Z,23.80
2018-07-02T19:24:25.146Z,23.70
2018-07-02T19:26:29.398Z,23.60
2018-07-02T19:28:33.756Z,23.60
2018-07-02T19:30:38.464Z,23.20
2018-07-02T19:32:42.441Z,23.10
2018-07-02T19:34:46.692Z,23.00
2018-07-02T19:36:51.102Z,22.70
2018-07-02T19:38:55.388Z,22.30
2018-07-02T19:41:00.311Z,22.10
2018-07-02T19:43:04.732Z,22.00
2018-07-02T19:45:09.864Z,21.90
2018-07-02T19:47:13.867Z,21.90
2018-07-02T19:49:18.265Z,21.70
2018-07-02T19:51:23.091Z,21.70
2018-07-02T19:53:27.445Z,21.50
2018-07-02T19:55:32.015Z,21.30
2018-07-02T19:57:36.699Z,21.40
2018-07-02T19:59:40.923Z,21.30
2018-07-02T20:01:45.170Z,21.20
2018-07-02T20:03:49.745Z,21.30
2018-07-02T20:05:54.051Z,21.20
2018-07-02T20:07:58.361Z,21.00
2018-07-02T20:10:02.589Z,21.00
2018-07-02T20:12:07.882Z,21.20
2018-07-02T20:14:12.141Z,21.20
2018-07-02T20:16:16.398Z,21.10
2018-07-02T20:18:20.724Z,21.20
2018-07-02T20:20:25.176Z,20.80
2018-07-02T20:22:29.520Z,21.00
2018-07-02T20:24:33.761Z,20.80
2018-07-02T20:26:38.032Z,20.70
2018-07-02T20:28:42.365Z,20.60
2018-07-02T20:30:46.785Z,20.60
2018-07-02T20:32:51.233Z,20.60
2018-07-02T20:34:55.971Z,20.60
2018-07-02T20:37:00.474Z,20.70
2018-07-02T20:39:07.846Z,20.40
2018-07-02T20:41:12.205Z,20.40
2018-07-02T20:43:16.486Z,20.40
2018-07-02T20:45:21.057Z,20.50
2018-07-02T20:47:25.076Z,20.50
2018-07-02T20:49:29.428Z,20.50
2018-07-02T20:51:33.774Z,20.40
2018-07-02T20:53:38.229Z,20.30
2018-07-02T20:55:43.039Z,20.10
2018-07-02T20:57:47.459Z,20.30
2018-07-02T20:59:51.677Z,20.20
2018-07-02T21:01:56.166Z,20.20
2018-07-02T21:04:00.477Z,20.20
2018-07-02T21:06:05.131Z,20.20
2018-07-02T21:08:09.377Z,20.10
2018-07-02T21:10:13.368Z,19.90
2018-07-02T21:12:18.161Z,20.10
2018-07-02T21:14:22.455Z,20.10
2018-07-02T21:16:26.802Z,20.10
2018-07-02T21:18:31.374Z,19.90
2018-07-02T21:20:36.897Z,19.90
2018-07-02T21:22:41.181Z,19.70
2018-07-02T21:24:45.441Z,19.50
2018-07-02T21:26:49.447Z,19.70
2018-07-02T21:28:54.119Z,19.70
2018-07-02T21:30:58.740Z,19.80
2018-07-02T21:33:02.955Z,19.90
2018-07-02T21:35:08.579Z,19.80
2018-07-02T21:37:12.924Z,19.50
2018-07-02T21:39:16.874Z,19.50
2018-07-02T21:41:21.641Z,19.50
2018-07-02T21:43:25.854Z,19.50
2018-07-02T21:45:30.086Z,19.50
2018-07-02T21:47:34.378Z,19.60
2018-07-02T21:49:38.880Z,19.30
2018-07-02T21:51:43.178Z,19.50
2018-07-02T21:53:47.797Z,19.30
2018-07-02T21:55:52.397Z,19.30
2018-07-02T22:00:00.857Z,19.20
2018-07-02T22:02:05.631Z,19.20
2018-07-02T22:04:12.411Z,19.00
2018-07-02T22:06:17.066Z,19.10
2018-07-02T22:08:21.647Z,19.00
2018-07-02T22:10:25.923Z,19.10
2018-07-02T22:12:29.936Z,18.90
2018-07-02T22:14:34.489Z,18.80
2018-07-02T22:16:38.761Z,19.00
2018-07-02T22:18:43.162Z,19.20
2018-07-02T22:20:47.514Z,19.20
2018-07-02T22:22:52.465Z,19.00
2018-07-02T22:24:56.740Z,18.60
2018-07-02T22:27:01.422Z,18.50
2018-07-02T22:29:06.463Z,18.70
2018-07-02T22:31:11.035Z,18.60
2018-07-02T22:33:15.661Z,18.70
2018-07-02T22:35:20.277Z,18.60
2018-07-02T22:37:24.505Z,18.50
2018-07-02T22:39:29.102Z,18.40
2018-07-02T22:43:37.051Z,18.60
2018-07-02T22:45:41.825Z,18.20
2018-07-02T22:47:46.272Z,18.00
2018-07-02T22:49:50.966Z,17.90
2018-07-02T22:53:58.877Z,18.00
2018-07-02T22:56:04.379Z,18.10
2018-07-02T22:58:08.424Z,17.90
2018-07-02T23:00:13.050Z,17.90
2018-07-02T23:04:20.614Z,18.10
2018-07-02T23:06:24.657Z,18.00
2018-07-02T23:08:28.689Z,17.90
2018-07-02T23:10:33.441Z,17.80
2018-07-02T23:12:37.714Z,17.60
2018-07-02T23:14:42.017Z,17.60
2018-07-02T23:16:46.335Z,17.60
2018-07-02T23:18:50.925Z,17.50
2018-07-02T23:23:02.122Z,17.40
2018-07-02T23:25:06.750Z,17.70
2018-07-02T23:27:11.513Z,17.60
2018-07-02T23:29:15.749Z,17.40
2018-07-02T23:31:20.000Z,17.30
2018-07-02T23:33:24.345Z,17.30
2018-07-02T23:35:28.995Z,17.20
2018-07-02T23:37:34.039Z,17.10
2018-07-02T23:39:38.277Z,16.90
2018-07-02T23:41:43.383Z,17.00
2018-07-02T23:43:47.944Z,17.20
2018-07-02T23:45:52.082Z,17.10
2018-07-02T23:47:56.359Z,16.90
2018-07-02T23:50:00.357Z,17.10
2018-07-02T23:52:05.098Z,17.00
2018-07-02T23:54:09.326Z,16.80
2018-07-02T23:56:13.573Z,17.00
2018-07-02T23:58:18.177Z,17.00
